Time,TemperatureF,DewpointF,PressureIn,WindDirection,WindDirectionDegrees,WindSpeedMPH,WindSpeedGustMPH,Humidity,HourlyPrecipIn,Conditions,Clouds,dailyrainin,SoftwareType,DateUTC
2013-10-07 00:01:00,45.7,16.7,29.69,WSW,240,1.5,3.1,31,0.00,,,0.00,WUHU216HW,2013-10-07 05:01:00,
2013-10-07 00:06:00,45.7,16.1,29.69,SSE,162,0.5,1.1,30,0.00,,,0.00,WUHU216HW,2013-10-07 05:06:00,
2013-10-07 00:11:00,45.7,15.2,29.69,South,188,0.6,0.9,29,0.00,,,0.00,WUHU216HW,2013-10-07 05:11:00,
2013-10-07 00:16:00,45.5,13.2,29.69,SSE,158,0.3,0.4,27,0.00,,,0.00,WUHU216HW,2013-10-07 05:16:00,
2013-10-07 00:21:00,45.5,13.2,29.69,WSW,248,0.4,0.4,27,0.00,,,0.00,WUHU216HW,2013-10-07 05:21:00,
2013-10-07 00:26:00,45.5,14.1,29.69,SW,221,0.8,1.6,28,0.00,,,0.00,WUHU216HW,2013-10-07 05:26:00,
2013-10-07 00:32:00,45.5,14.1,29.69,WSW,252,0.9,1.6,28,0.00,,,0.00,WUHU216HW,2013-10-07 05:32:00,
2013-10-07 00:37:00,45.5,14.1,29.69,SSW,200,0.8,1.1,28,0.00,,,0.00,WUHU216HW,2013-10-07 05:37:00,
2013-10-07 00:42:00,45.4,13.1,29.69,West,259,1.8,2.9,27,0.00,,,0.00,WUHU216HW,2013-10-07 05:42:00,
2013-10-07 00:48:00,45.4,12.2,29.69,SW,234,0.9,2.2,26,0.00,,,0.00,WUHU216HW,2013-10-07 05:48:00,
2013-10-07 00:53:00,45.4,11.3,29.69,WSW,248,0.6,1.1,25,0.00,,,0.00,WUHU216HW,2013-10-07 05:53:00,
2013-10-07 00:58:00,45.4,11.3,29.69,SW,228,0.9,1.6,25,0.00,,,0.00,WUHU216HW,2013-10-07 05:58:00,
2013-10-07 01:03:00,45.4,10.4,29.70,West,259,1.9,4.0,24,0.00,,,0.00,WUHU216HW,2013-10-07 06:03:00,
2013-10-07 01:08:00,45.4,9.5,29.69,WSW,244,1.0,2.5,23,0.00,,,0.00,WUHU216HW,2013-10-07 06:08:00,
2013-10-07 01:14:00,45.4,8.6,29.69,West,263,0.5,0.9,22,0.00,,,0.00,WUHU216HW,2013-10-07 06:14:00,
2013-10-07 01:19:00,45.4,8.6,29.70,WSW,245,1.9,3.8,22,0.00,,,0.00,WUHU216HW,2013-10-07 06:19:00,
2013-10-07 01:24:00,45.4,7.6,29.70,WSW,248,2.6,4.3,21,0.00,,,0.00,WUHU216HW,2013-10-07 06:24:00,
2013-10-07 01:29:00,45.4,7.6,29.70,WSW,244,2.5,5.6,21,0.00,,,0.00,WUHU216HW,2013-10-07 06:29:00,
2013-10-07 01:34:00,45.2,6.6,29.70,SW,236,2.2,4.0,20,0.00,,,0.00,WUHU216HW,2013-10-07 06:34:00,
2013-10-07 01:41:00,45.4,3.8,29.70,WSW,249,1.8,2.5,18,0.00,,,0.00,WUHU216HW,2013-10-07 06:41:00,
2013-10-07 01:49:00,45.4,3.8,29.70,SW,234,0.9,2.0,18,0.00,,,0.00,WUHU216HW,2013-10-07 06:49:00,
2013-10-07 01:54:00,45.4,2.3,29.70,WSW,238,1.6,2.9,17,0.00,,,0.00,WUHU216HW,2013-10-07 06:54:00,
2013-10-07 01:59:00,45.4,0.8,29.70,SW,218,1.5,3.4,16,0.00,,,0.00,WUHU216HW,2013-10-07 06:59:00,
2013-10-07 02:04:00,45.4,0.8,29.70,SSW,208,1.0,1.3,16,0.00,,,0.00,WUHU216HW,2013-10-07 07:04:00,
2013-10-07 02:09:00,45.4,0.8,29.70,WSW,239,1.1,1.8,16,0.00,,,0.00,WUHU216HW,2013-10-07 07:09:00,
2013-10-07 02:14:00,45.4,0.8,29.70,WSW,237,1.5,2.7,16,0.00,,,0.00,WUHU216HW,2013-10-07 07:14:00,
2013-10-07 02:19:00,45.4,0.8,29.70,SSW,210,0.9,1.6,16,0.00,,,0.00,WUHU216HW,2013-10-07 07:19:00,
2013-10-07 02:25:00,45.4,0.8,29.70,WSW,252,1.7,3.1,16,0.00,,,0.00,WUHU216HW,2013-10-07 07:25:00,
2013-10-07 02:30:00,45.2,-0.8,29.70,SW,236,1.9,3.1,15,0.00,,,0.00,WUHU216HW,2013-10-07 07:30:00,
2013-10-07 02:35:00,45.2,-0.8,29.70,SSW,208,0.5,1.1,15,0.00,,,0.00,WUHU216HW,2013-10-07 07:35:00,
2013-10-07 02:40:00,45.2,-5.2,29.70,SSW,201,1.1,4.0,12,0.00,,,0.00,WUHU216HW,2013-10-07 07:40:00,
2013-10-07 02:46:00,45.2,-2.3,29.70,WSW,248,0.8,1.8,14,0.00,,,0.00,WUHU216HW,2013-10-07 07:46:00,
2013-10-07 02:51:00,45.2,-2.3,29.69,SSW,207,0.6,1.3,14,0.00,,,0.00,WUHU216HW,2013-10-07 07:51:00,
2013-10-07 02:57:00,45.2,-5.2,29.69,SW,228,0.7,1.1,12,0.00,,,0.00,WUHU216HW,2013-10-07 07:57:00,
2013-10-07 03:02:00,45.2,-3.8,29.69,SW,219,0.6,1.1,13,0.00,,,0.00,WUHU216HW,2013-10-07 08:02:00,
2013-10-07 03:07:00,45.0,-2.4,29.69,SSW,212,1.3,2.7,14,0.00,,,0.00,WUHU216HW,2013-10-07 08:07:00,
2013-10-07 03:12:00,45.0,-2.4,29.69,WSW,241,1.0,1.8,14,0.00,,,0.00,WUHU216HW,2013-10-07 08:12:00,
2013-10-07 03:17:00,44.8,-2.6,29.69,WSW,256,1.3,2.5,14,0.00,,,0.00,WUHU216HW,2013-10-07 08:17:00,
2013-10-07 03:22:00,44.6,-2.7,29.69,SW,225,0.9,1.6,14,0.00,,,0.00,WUHU216HW,2013-10-07 08:22:00,
2013-10-07 03:28:00,44.6,-5.7,29.69,SW,236,1.6,2.5,12,0.00,,,0.00,WUHU216HW,2013-10-07 08:28:00,
2013-10-07 03:34:00,44.6,-5.7,29.69,SW,232,0.8,1.1,12,0.00,,,0.00,WUHU216HW,2013-10-07 08:34:00,
2013-10-07 03:39:00,44.6,-7.2,29.69,South,191,1.2,2.5,11,0.00,,,0.00,WUHU216HW,2013-10-07 08:39:00,
2013-10-07 03:45:00,44.6,-7.2,29.69,South,171,1.3,2.2,11,0.00,,,0.00,WUHU216HW,2013-10-07 08:45:00,
2013-10-07 03:50:00,44.8,-8.4,29.69,WSW,248,1.7,2.5,10,0.00,,,0.00,WUHU216HW,2013-10-07 08:50:00,
2013-10-07 03:55:00,44.8,-8.4,29.69,WSW,239,1.6,3.8,9,0.00,,,0.00,WUHU216HW,2013-10-07 08:55:00,
2013-10-07 04:00:00,44.8,-8.4,29.70,SW,218,1.4,2.9,9,0.00,,,0.00,WUHU216HW,2013-10-07 09:00:00,
2013-10-07 04:05:00,45.0,-8.4,29.70,SSW,194,1.5,2.0,7,0.00,,,0.00,WUHU216HW,2013-10-07 09:05:00,
2013-10-07 04:10:00,45.0,-8.4,29.70,WSW,246,1.8,2.7,7,0.00,,,0.00,WUHU216HW,2013-10-07 09:10:00,
2013-10-07 04:16:00,45.2,-8.2,29.70,WSW,239,1.8,3.6,7,0.00,,,0.00,WUHU216HW,2013-10-07 09:16:00,
2013-10-07 04:21:00,45.2,-8.2,29.70,WSW,248,1.2,2.2,7,0.01,,,0.01,WUHU216HW,2013-10-07 09:21:00,
2013-10-07 04:26:00,45.2,-8.2,29.71,SW,221,2.3,4.3,7,0.01,,,0.01,WUHU216HW,2013-10-07 09:26:00,
2013-10-07 04:33:00,45.2,-8.2,29.71,WSW,249,1.5,2.2,7,0.01,,,0.01,WUHU216HW,2013-10-07 09:33:00,
2013-10-07 04:38:00,45.2,-8.2,29.71,WSW,237,1.3,1.8,7,0.01,,,0.01,WUHU216HW,2013-10-07 09:38:00,
2013-10-07 04:43:00,45.2,-8.2,29.71,West,262,2.2,2.9,6,0.01,,,0.01,WUHU216HW,2013-10-07 09:43:00,
2013-10-07 04:49:00,45.2,-8.2,29.71,WSW,257,2.6,4.0,6,0.01,,,0.01,WUHU216HW,2013-10-07 09:49:00,
2013-10-07 04:54:00,45.2,-8.2,29.71,SW,226,1.9,2.7,6,0.02,,,0.02,WUHU216HW,2013-10-07 09:54:00,
2013-10-07 04:59:00,45.2,-8.2,29.71,SW,236,2.7,3.4,5,0.02,,,0.02,WUHU216HW,2013-10-07 09:59:00,
2013-10-07 05:04:00,45.2,-8.2,29.71,WSW,250,2.6,4.5,5,0.03,,,0.03,WUHU216HW,2013-10-07 10:04:00,
2013-10-07 05:09:00,45.2,-8.2,29.71,WSW,237,1.9,2.5,3,0.03,,,0.03,WUHU216HW,2013-10-07 10:09:00,
2013-10-07 05:14:00,45.2,-8.2,29.72,WSW,257,1.6,2.2,2,0.03,,,0.03,WUHU216HW,2013-10-07 10:14:00,
2013-10-07 05:19:00,45.2,-8.2,29.72,West,259,2.6,4.3,2,0.02,,,0.03,WUHU216HW,2013-10-07 10:19:00,
2013-10-07 05:24:00,45.4,-8.1,29.72,WSW,258,1.7,2.5,2,0.02,,,0.03,WUHU216HW,2013-10-07 10:24:00,
2013-10-07 05:30:00,45.4,-8.1,29.72,West,265,1.9,4.3,1,0.02,,,0.03,WUHU216HW,2013-10-07 10:30:00,
2013-10-07 05:35:00,45.4,-8.1,29.72,WSW,255,2.6,3.8,1,0.02,,,0.03,WUHU216HW,2013-10-07 10:35:00,
2013-10-07 05:40:00,45.5,-7.9,29.73,West,263,2.1,3.4,1,0.02,,,0.03,WUHU216HW,2013-10-07 10:40:00,
2013-10-07 05:45:00,45.5,-7.9,29.73,West,260,2.7,4.9,1,0.02,,,0.03,WUHU216HW,2013-10-07 10:45:00,
2013-10-07 05:53:00,45.5,-7.9,29.73,West,262,3.4,4.7,1,0.01,,,0.03,WUHU216HW,2013-10-07 10:53:00,
2013-10-07 05:58:00,45.5,-7.9,29.73,WSW,258,3.4,4.0,1,0.01,,,0.03,WUHU216HW,2013-10-07 10:58:00,
2013-10-07 06:03:00,45.7,-7.7,29.73,West,259,3.5,4.3,1,0.00,,,0.03,WUHU216HW,2013-10-07 11:03:00,
2013-10-07 06:08:00,45.9,-7.6,29.73,West,268,2.9,4.0,1,0.00,,,0.03,WUHU216HW,2013-10-07 11:08:00,
2013-10-07 06:13:00,45.9,-7.6,29.74,West,267,3.0,5.1,1,0.00,,,0.03,WUHU216HW,2013-10-07 11:13:00,
2013-10-07 06:18:00,46.1,-7.5,29.74,West,265,3.2,4.7,1,0.00,,,0.03,WUHU216HW,2013-10-07 11:18:00,
2013-10-07 06:23:00,46.3,-7.4,29.74,WNW,284,4.0,4.9,1,0.00,,,0.03,WUHU216HW,2013-10-07 11:23:00,
2013-10-07 06:28:00,46.3,-7.4,29.74,West,272,4.1,5.6,1,0.01,,,0.04,WUHU216HW,2013-10-07 11:28:00,
2013-10-07 06:33:00,46.4,-7.2,29.75,NW,309,3.9,4.9,1,0.01,,,0.04,WUHU216HW,2013-10-07 11:33:00,
2013-10-07 06:38:00,46.4,-7.2,29.75,NNW,327,5.9,9.2,1,0.01,,,0.04,WUHU216HW,2013-10-07 11:38:00,
2013-10-07 06:43:00,46.4,-7.2,29.75,WNW,301,4.7,5.4,1,0.01,,,0.04,WUHU216HW,2013-10-07 11:43:00,
2013-10-07 06:49:00,46.4,-7.2,29.75,WNW,303,6.5,8.5,1,0.01,,,0.04,WUHU216HW,2013-10-07 11:49:00,
2013-10-07 06:54:00,46.4,-7.2,29.76,NW,315,5.7,7.4,1,0.01,,,0.04,WUHU216HW,2013-10-07 11:54:00,
2013-10-07 06:59:00,46.4,-7.2,29.76,NW,318,5.1,6.3,1,0.01,,,0.04,WUHU216HW,2013-10-07 11:59:00,
2013-10-07 07:04:00,46.4,-7.2,29.76,NW,318,4.1,6.9,1,0.01,,,0.04,WUHU216HW,2013-10-07 12:04:00,
2013-10-07 07:09:00,46.4,-7.2,29.76,NW,304,5.0,6.9,1,0.01,,,0.04,WUHU216HW,2013-10-07 12:09:00,
2013-10-07 07:14:00,46.4,-7.2,29.77,NW,311,5.2,7.6,1,0.01,,,0.04,WUHU216HW,2013-10-07 12:14:00,
2013-10-07 07:20:00,46.4,-7.2,29.77,NW,321,6.9,7.8,1,0.01,,,0.04,WUHU216HW,2013-10-07 12:20:00,
2013-10-07 07:25:00,46.3,-7.4,29.77,NW,319,4.7,5.4,1,0.00,,,0.04,WUHU216HW,2013-10-07 12:25:00,
2013-10-07 07:31:00,45.9,-7.6,29.77,WNW,298,6.3,8.5,1,0.00,,,0.04,WUHU216HW,2013-10-07 12:31:00,
2013-10-07 07:36:00,45.7,-7.7,29.78,WNW,302,4.4,6.3,1,0.00,,,0.04,WUHU216HW,2013-10-07 12:36:00,
2013-10-07 07:41:00,45.4,-8.1,29.78,WNW,303,3.7,4.9,1,0.00,,,0.04,WUHU216HW,2013-10-07 12:41:00,
2013-10-07 07:46:00,45.4,-8.1,29.78,WNW,293,3.8,5.8,1,0.00,,,0.04,WUHU216HW,2013-10-07 12:46:00,
2013-10-07 07:52:00,45.0,-8.4,29.78,WNW,292,4.7,5.4,1,0.00,,,0.04,WUHU216HW,2013-10-07 12:52:00,
2013-10-07 07:57:00,45.0,-8.4,29.79,West,277,4.9,6.3,1,0.00,,,0.04,WUHU216HW,2013-10-07 12:57:00,
2013-10-07 08:02:00,45.0,-8.4,29.79,WNW,300,4.6,6.5,1,0.00,,,0.04,WUHU216HW,2013-10-07 13:02:00,
2013-10-07 08:07:00,45.2,-8.2,29.79,WNW,299,5.0,8.1,1,0.00,,,0.04,WUHU216HW,2013-10-07 13:07:00,
2013-10-07 08:12:00,45.2,-8.2,29.79,West,280,3.4,6.0,1,0.00,,,0.04,WUHU216HW,2013-10-07 13:12:00,
2013-10-07 08:18:00,45.5,-7.9,29.80,WNW,297,5.1,7.6,1,0.00,,,0.04,WUHU216HW,2013-10-07 13:18:00,
2013-10-07 08:23:00,45.7,-7.7,29.80,West,275,4.7,8.3,1,0.00,,,0.04,WUHU216HW,2013-10-07 13:23:00,
2013-10-07 08:28:00,45.9,-7.6,29.80,NW,308,4.1,5.6,1,0.00,,,0.04,WUHU216HW,2013-10-07 13:28:00,
2013-10-07 08:33:00,46.1,-7.5,29.80,WNW,286,5.6,9.2,1,0.00,,,0.04,WUHU216HW,2013-10-07 13:33:00,
2013-10-07 08:41:00,46.3,-7.4,29.81,WNW,287,5.6,7.8,1,0.00,,,0.04,WUHU216HW,2013-10-07 13:41:00,
2013-10-07 08:49:00,46.6,-7.0,29.81,West,272,6.0,8.5,1,0.00,,,0.04,WUHU216HW,2013-10-07 13:49:00,
2013-10-07 08:54:00,47.0,-6.7,29.82,WSW,252,5.5,6.9,1,0.00,,,0.04,WUHU216HW,2013-10-07 13:54:00,
2013-10-07 08:59:00,47.2,-6.7,29.82,WNW,283,4.7,6.3,1,0.00,,,0.04,WUHU216HW,2013-10-07 13:59:00,
2013-10-07 09:05:00,47.7,-6.2,29.82,WNW,296,6.2,7.6,1,0.00,,,0.04,WUHU216HW,2013-10-07 14:05:00,
2013-10-07 09:10:00,48.4,-5.7,29.82,WNW,286,6.8,8.3,1,0.00,,,0.04,WUHU216HW,2013-10-07 14:10:00,
2013-10-07 09:15:00,49.3,-5.0,29.83,WNW,283,3.5,4.3,1,0.00,,,0.04,WUHU216HW,2013-10-07 14:15:00,
2013-10-07 09:21:00,50.2,-4.3,29.83,West,273,6.0,8.3,1,0.00,,,0.04,WUHU216HW,2013-10-07 14:21:00,
2013-10-07 09:26:00,50.0,-4.5,29.83,West,275,4.5,7.8,1,0.00,,,0.04,WUHU216HW,2013-10-07 14:26:00,
2013-10-07 09:32:00,50.2,-4.3,29.83,WNW,297,5.9,7.8,1,0.00,,,0.04,WUHU216HW,2013-10-07 14:32:00,
2013-10-07 09:37:00,50.2,-4.3,29.83,WNW,298,6.7,7.6,3,0.00,,,0.04,WUHU216HW,2013-10-07 14:37:00,
2013-10-07 09:42:00,50.0,-4.5,29.84,NNW,330,3.5,4.7,5,0.00,,,0.04,WUHU216HW,2013-10-07 14:42:00,
2013-10-07 09:47:00,50.0,-4.5,29.84,NW,312,5.1,6.9,7,0.00,,,0.04,WUHU216HW,2013-10-07 14:47:00,
2013-10-07 09:52:00,50.0,-4.5,29.83,NW,312,4.4,7.8,8,0.00,,,0.04,WUHU216HW,2013-10-07 14:52:00,
2013-10-07 09:57:00,50.2,-4.3,29.84,WNW,290,4.4,6.9,7,0.00,,,0.04,WUHU216HW,2013-10-07 14:57:00,
2013-10-07 10:03:00,50.6,-4.0,29.84,WNW,290,4.4,5.6,10,0.00,,,0.04,WUHU216HW,2013-10-07 15:03:00,
2013-10-07 10:09:00,50.8,-0.9,29.85,West,280,7.2,10.7,12,0.00,,,0.04,WUHU216HW,2013-10-07 15:09:00,
2013-10-07 10:14:00,50.9,5.3,29.85,WNW,283,5.5,7.4,16,0.00,,,0.04,WUHU216HW,2013-10-07 15:14:00,
2013-10-07 10:19:00,51.1,4.0,29.85,WNW,284,4.6,6.3,15,0.00,,,0.04,WUHU216HW,2013-10-07 15:19:00,
2013-10-07 10:24:00,51.1,6.9,29.85,West,277,5.6,8.1,17,0.00,,,0.04,WUHU216HW,2013-10-07 15:24:00,
2013-10-07 10:29:00,51.5,7.2,29.85,West,271,6.4,9.2,17,0.00,,,0.04,WUHU216HW,2013-10-07 15:29:00,
2013-10-07 10:34:00,51.8,7.6,29.86,West,264,5.8,7.4,17,0.00,,,0.04,WUHU216HW,2013-10-07 15:34:00,
2013-10-07 10:39:00,52.2,12.3,29.86,WNW,283,5.2,8.3,20,0.00,,,0.04,WUHU216HW,2013-10-07 15:39:00,
2013-10-07 10:45:00,52.4,16.3,29.87,NW,304,6.1,8.5,24,0.00,,,0.04,WUHU216HW,2013-10-07 15:45:00,
2013-10-07 10:50:00,52.7,14.7,29.87,West,279,6.3,7.6,22,0.00,,,0.04,WUHU216HW,2013-10-07 15:50:00,
2013-10-07 10:57:00,53.3,18.0,29.87,West,265,7.8,8.9,25,0.00,,,0.04,WUHU216HW,2013-10-07 15:57:00,
2013-10-07 11:02:00,53.6,17.3,29.87,SW,233,6.6,10.5,24,0.00,,,0.04,WUHU216HW,2013-10-07 16:02:00,
2013-10-07 11:08:00,53.8,20.4,29.88,West,267,6.3,9.8,27,0.00,,,0.04,WUHU216HW,2013-10-07 16:08:00,
2013-10-07 11:14:00,54.4,24.3,29.88,West,267,6.4,8.1,31,0.00,,,0.04,WUHU216HW,2013-10-07 16:14:00,
2013-10-07 11:19:00,54.4,25.0,29.88,WNW,287,6.9,8.3,32,0.00,,,0.04,WUHU216HW,2013-10-07 16:19:00,
2013-10-07 11:25:00,54.5,25.1,29.88,WNW,282,2.7,4.0,32,0.00,,,0.04,WUHU216HW,2013-10-07 16:25:00,
2013-10-07 11:30:00,55.3,25.8,29.89,WSW,255,4.2,6.9,32,0.00,,,0.04,WUHU216HW,2013-10-07 16:30:00,
2013-10-07 11:35:00,55.4,27.3,29.89,West,270,5.1,6.7,34,0.00,,,0.04,WUHU216HW,2013-10-07 16:35:00,
2013-10-07 11:40:00,55.6,30.2,29.89,West,271,6.8,10.1,38,0.00,,,0.04,WUHU216HW,2013-10-07 16:40:00,
2013-10-07 11:46:00,55.4,32.0,29.89,West,266,4.2,6.7,41,0.00,,,0.04,WUHU216HW,2013-10-07 16:46:00,
2013-10-07 11:53:00,55.3,31.3,29.89,West,272,3.9,6.9,40,0.00,,,0.04,WUHU216HW,2013-10-07 16:53:00,
2013-10-07 12:00:00,55.1,31.8,29.89,WSW,258,4.9,7.2,41,0.00,,,0.04,WUHU216HW,2013-10-07 17:00:00,
2013-10-07 12:05:00,55.1,32.9,29.89,West,266,6.6,10.1,43,0.00,,,0.04,WUHU216HW,2013-10-07 17:05:00,
2013-10-07 12:10:00,55.1,32.3,29.89,West,276,3.0,6.3,42,0.00,,,0.04,WUHU216HW,2013-10-07 17:10:00,
2013-10-07 12:16:00,55.1,32.3,29.89,WNW,284,5.9,6.9,42,0.00,,,0.04,WUHU216HW,2013-10-07 17:16:00,
2013-10-07 12:22:00,55.3,33.0,29.90,West,268,3.1,6.0,43,0.00,,,0.04,WUHU216HW,2013-10-07 17:22:00,
2013-10-07 12:27:00,55.4,33.2,29.90,WNW,294,4.0,5.6,43,0.00,,,0.04,WUHU216HW,2013-10-07 17:27:00,
2013-10-07 12:33:00,55.6,33.9,29.90,WNW,282,5.2,6.3,44,0.00,,,0.04,WUHU216HW,2013-10-07 17:33:00,
2013-10-07 12:39:00,55.6,33.9,29.90,West,274,4.6,6.3,44,0.00,,,0.04,WUHU216HW,2013-10-07 17:39:00,
2013-10-07 12:44:00,55.8,34.1,29.90,WSW,255,2.8,5.1,44,0.00,,,0.04,WUHU216HW,2013-10-07 17:44:00,
2013-10-07 12:49:00,55.8,34.7,29.90,West,277,5.1,9.4,45,0.00,,,0.04,WUHU216HW,2013-10-07 17:49:00,
2013-10-07 12:54:00,55.8,35.2,29.90,NW,304,5.9,8.1,46,0.00,,,0.04,WUHU216HW,2013-10-07 17:54:00,
2013-10-07 12:59:00,56.0,36.5,29.89,WNW,286,5.2,8.1,48,0.00,,,0.04,WUHU216HW,2013-10-07 17:59:00,
2013-10-07 13:04:00,56.2,35.6,29.89,West,271,4.4,6.5,46,0.00,,,0.04,WUHU216HW,2013-10-07 18:04:00,
2013-10-07 13:09:00,56.2,36.6,29.89,West,272,4.9,6.0,48,0.00,,,0.04,WUHU216HW,2013-10-07 18:09:00,
2013-10-07 13:14:00,56.5,37.0,29.89,WSW,258,4.9,8.3,48,0.00,,,0.04,WUHU216HW,2013-10-07 18:14:00,
2013-10-07 13:20:00,56.7,38.3,29.89,West,260,6.0,8.5,50,0.00,,,0.04,WUHU216HW,2013-10-07 18:20:00,
2013-10-07 13:26:00,56.9,39.0,29.89,West,261,6.1,8.7,51,0.00,,,0.04,WUHU216HW,2013-10-07 18:26:00,
2013-10-07 13:33:00,57.1,39.2,29.89,West,269,4.0,5.8,51,0.00,,,0.04,WUHU216HW,2013-10-07 18:33:00,
2013-10-07 13:38:00,57.4,40.0,29.90,WSW,249,3.9,5.4,52,0.00,,,0.04,WUHU216HW,2013-10-07 18:38:00,
2013-10-07 13:43:00,58.0,41.0,29.89,WSW,253,6.8,8.7,53,0.00,,,0.04,WUHU216HW,2013-10-07 18:43:00,
2013-10-07 13:48:00,58.1,40.6,29.90,West,275,5.2,7.4,52,0.00,,,0.04,WUHU216HW,2013-10-07 18:48:00,
2013-10-07 13:53:00,58.9,41.8,29.89,WSW,250,6.2,8.9,53,0.00,,,0.04,WUHU216HW,2013-10-07 18:53:00,
2013-10-07 13:58:00,59.4,42.2,29.90,WSW,246,4.5,6.7,53,0.00,,,0.04,WUHU216HW,2013-10-07 18:58:00,
2013-10-07 14:03:00,59.8,43.0,29.90,West,264,4.2,5.8,54,0.00,,,0.04,WUHU216HW,2013-10-07 19:03:00,
2013-10-07 14:08:00,60.3,44.0,29.90,West,279,5.6,10.7,55,0.00,,,0.04,WUHU216HW,2013-10-07 19:08:00,
2013-10-07 14:13:00,60.7,44.4,29.90,NW,312,3.5,5.8,55,0.00,,,0.04,WUHU216HW,2013-10-07 19:13:00,
2013-10-07 14:18:00,60.8,45.0,29.90,West,275,3.5,7.6,56,0.00,,,0.04,WUHU216HW,2013-10-07 19:18:00,
2013-10-07 14:23:00,61.0,45.2,29.90,WNW,285,4.7,7.6,56,0.00,,,0.04,WUHU216HW,2013-10-07 19:23:00,
2013-10-07 14:28:00,61.2,45.4,29.90,SW,219,3.7,7.6,56,0.00,,,0.04,WUHU216HW,2013-10-07 19:28:00,
2013-10-07 14:33:00,61.6,46.2,29.90,West,273,7.0,8.7,57,0.00,,,0.04,WUHU216HW,2013-10-07 19:33:00,
2013-10-07 14:39:00,61.4,46.0,29.90,WSW,242,5.0,6.3,57,0.00,,,0.04,WUHU216HW,2013-10-07 19:39:00,
2013-10-07 14:44:00,61.2,45.8,29.90,West,268,3.1,6.3,57,0.00,,,0.04,WUHU216HW,2013-10-07 19:44:00,
2013-10-07 14:49:00,61.4,46.0,29.90,South,184,3.2,4.5,57,0.00,,,0.04,WUHU216HW,2013-10-07 19:49:00,
2013-10-07 14:54:00,61.7,46.8,29.90,SW,227,6.2,9.4,58,0.00,,,0.04,WUHU216HW,2013-10-07 19:54:00,
2013-10-07 14:59:00,62.3,47.4,29.90,West,266,3.6,7.2,58,0.00,,,0.04,WUHU216HW,2013-10-07 19:59:00,
2013-10-07 15:05:00,62.3,47.4,29.90,SW,230,2.5,4.9,58,0.00,,,0.04,WUHU216HW,2013-10-07 20:05:00,
2013-10-07 15:11:00,62.3,47.4,29.90,West,264,4.0,6.7,58,0.00,,,0.04,WUHU216HW,2013-10-07 20:11:00,
2013-10-07 15:17:00,61.9,47.0,29.91,SW,228,6.7,9.8,58,0.00,,,0.04,WUHU216HW,2013-10-07 20:17:00,
2013-10-07 15:22:00,61.9,47.0,29.91,NW,312,4.4,6.0,58,0.00,,,0.04,WUHU216HW,2013-10-07 20:22:00,
2013-10-07 15:28:00,61.7,46.8,29.91,WNW,290,5.6,7.8,58,0.00,,,0.04,WUHU216HW,2013-10-07 20:28:00,
2013-10-07 15:34:00,61.7,46.8,29.91,NW,309,3.6,5.6,58,0.00,,,0.04,WUHU216HW,2013-10-07 20:34:00,
2013-10-07 15:39:00,61.7,46.8,29.91,NW,304,4.5,5.6,58,0.00,,,0.04,WUHU216HW,2013-10-07 20:39:00,
2013-10-07 15:44:00,61.6,46.6,29.92,West,262,5.1,6.3,58,0.00,,,0.04,WUHU216HW,2013-10-07 20:44:00,
2013-10-07 15:50:00,61.6,46.6,29.91,WNW,282,7.1,9.2,58,0.00,,,0.04,WUHU216HW,2013-10-07 20:50:00,
2013-10-07 15:55:00,61.2,46.4,29.91,WNW,282,5.2,7.4,58,0.00,,,0.04,WUHU216HW,2013-10-07 20:55:00,
2013-10-07 16:01:00,61.2,46.4,29.91,West,267,3.9,6.7,58,0.00,,,0.04,WUHU216HW,2013-10-07 21:01:00,
2013-10-07 16:06:00,61.0,46.2,29.91,West,270,5.2,6.3,58,0.00,,,0.04,WUHU216HW,2013-10-07 21:06:00,
2013-10-07 16:12:00,60.8,46.0,29.92,WSW,251,5.6,7.6,58,0.00,,,0.04,WUHU216HW,2013-10-07 21:12:00,
2013-10-07 16:17:00,60.8,46.0,29.92,WNW,286,6.3,8.9,58,0.00,,,0.04,WUHU216HW,2013-10-07 21:17:00,
2013-10-07 16:22:00,60.8,46.0,29.92,WNW,287,5.2,7.6,58,0.00,,,0.04,WUHU216HW,2013-10-07 21:22:00,
2013-10-07 16:27:00,60.8,46.0,29.92,West,266,4.3,6.3,58,0.00,,,0.04,WUHU216HW,2013-10-07 21:27:00,
2013-10-07 16:32:00,60.8,46.0,29.92,West,270,3.4,6.0,58,0.00,,,0.04,WUHU216HW,2013-10-07 21:32:00,
2013-10-07 16:37:00,60.7,45.8,29.92,WNW,302,5.6,9.6,58,0.00,,,0.04,WUHU216HW,2013-10-07 21:37:00,
2013-10-07 16:42:00,60.7,45.8,29.92,WSW,252,5.6,6.9,58,0.00,,,0.04,WUHU216HW,2013-10-07 21:42:00,
2013-10-07 16:47:00,60.7,45.8,29.92,WSW,255,4.9,8.5,58,0.00,,,0.04,WUHU216HW,2013-10-07 21:47:00,
2013-10-07 16:52:00,60.5,45.6,29.93,WSW,256,4.4,7.4,58,0.00,,,0.04,WUHU216HW,2013-10-07 21:52:00,
2013-10-07 16:58:00,60.5,45.6,29.93,West,274,3.9,6.3,58,0.00,,,0.04,WUHU216HW,2013-10-07 21:58:00,
2013-10-07 17:03:00,60.3,45.5,29.92,WSW,247,4.4,7.6,58,0.00,,,0.04,WUHU216HW,2013-10-07 22:03:00,
2013-10-07 17:09:00,60.1,45.3,29.93,West,269,7.1,9.2,58,0.00,,,0.04,WUHU216HW,2013-10-07 22:09:00,
2013-10-07 17:15:00,60.1,45.3,29.93,West,265,4.8,6.5,58,0.00,,,0.04,WUHU216HW,2013-10-07 22:15:00,
2013-10-07 17:20:00,59.9,45.1,29.93,NW,318,4.0,5.1,58,0.00,,,0.04,WUHU216HW,2013-10-07 22:20:00,
2013-10-07 17:25:00,59.8,44.9,29.93,West,278,3.1,4.7,58,0.00,,,0.04,WUHU216HW,2013-10-07 22:25:00,
2013-10-07 17:30:00,59.6,44.7,29.94,WNW,282,3.9,5.4,58,0.00,,,0.04,WUHU216HW,2013-10-07 22:30:00,
2013-10-07 17:35:00,59.4,44.7,29.94,WNW,285,4.0,4.7,58,0.00,,,0.04,WUHU216HW,2013-10-07 22:35:00,
2013-10-07 17:40:00,59.2,44.5,29.94,West,278,2.5,3.4,58,0.00,,,0.04,WUHU216HW,2013-10-07 22:40:00,
2013-10-07 17:45:00,59.0,44.7,29.94,West,269,1.9,3.4,59,0.00,,,0.04,WUHU216HW,2013-10-07 22:45:00,
2013-10-07 17:50:00,58.9,44.1,29.94,West,261,1.9,2.9,58,0.00,,,0.04,WUHU216HW,2013-10-07 22:50:00,
2013-10-07 17:55:00,58.3,43.6,29.94,WNW,285,0.7,1.3,58,0.00,,,0.04,WUHU216HW,2013-10-07 22:55:00,
2013-10-07 18:02:00,57.8,43.1,29.94,West,277,2.1,3.1,58,0.00,,,0.04,WUHU216HW,2013-10-07 23:02:00,
2013-10-07 18:08:00,57.4,42.8,29.95,West,270,2.2,3.4,58,0.00,,,0.04,WUHU216HW,2013-10-07 23:08:00,
2013-10-07 18:14:00,57.1,42.9,29.95,West,270,1.4,1.8,59,0.00,,,0.04,WUHU216HW,2013-10-07 23:14:00,
2013-10-07 18:19:00,56.5,42.4,29.95,West,270,1.3,2.0,59,0.00,,,0.04,WUHU216HW,2013-10-07 23:19:00,
2013-10-07 18:24:00,56.2,42.0,29.95,West,270,1.1,1.6,59,0.00,,,0.04,WUHU216HW,2013-10-07 23:24:00,
2013-10-07 18:30:00,55.6,41.5,29.96,West,270,0.7,0.7,59,0.00,,,0.04,WUHU216HW,2013-10-07 23:30:00,
2013-10-07 18:35:00,55.3,41.1,29.96,West,270,0.2,0.2,59,0.00,,,0.04,WUHU216HW,2013-10-07 23:35:00,
2013-10-07 18:40:00,55.1,41.0,29.96,West,270,0.5,0.7,59,0.00,,,0.04,WUHU216HW,2013-10-07 23:40:00,
2013-10-07 18:47:00,54.7,40.7,29.96,North,0,0.0,0.0,59,0.00,,,0.04,WUHU216HW,2013-10-07 23:47:00,
2013-10-07 18:52:00,54.4,40.3,29.97,North,0,0.0,0.0,59,0.00,,,0.04,WUHU216HW,2013-10-07 23:52:00,
2013-10-07 18:58:00,54.0,40.0,29.97,North,0,0.0,0.0,59,0.00,,,0.04,WUHU216HW,2013-10-07 23:58:00,
2013-10-07 19:03:00,53.5,39.5,29.97,North,0,0.0,0.0,59,0.00,,,0.04,WUHU216HW,2013-10-08 00:03:00,
2013-10-07 19:09:00,52.9,39.0,29.97,North,0,0.0,0.0,59,0.00,,,0.04,WUHU216HW,2013-10-08 00:09:00,
2013-10-07 19:14:00,52.4,38.4,29.97,North,0,0.0,0.0,59,0.00,,,0.04,WUHU216HW,2013-10-08 00:14:00,
2013-10-07 19:20:00,52.0,37.2,29.97,North,0,0.0,0.0,57,0.00,,,0.04,WUHU216HW,2013-10-08 00:20:00,
2013-10-07 19:25:00,52.0,37.6,29.97,North,0,0.0,0.0,58,0.00,,,0.04,WUHU216HW,2013-10-08 00:25:00,
2013-10-07 19:30:00,51.5,37.1,29.98,North,0,0.0,0.0,58,0.00,,,0.04,WUHU216HW,2013-10-08 00:30:00,
2013-10-07 19:35:00,51.3,37.0,29.98,North,0,0.0,0.0,58,0.00,,,0.04,WUHU216HW,2013-10-08 00:35:00,
2013-10-07 19:40:00,50.8,35.6,29.98,North,0,0.0,0.0,56,0.00,,,0.04,WUHU216HW,2013-10-08 00:40:00,
2013-10-07 19:45:00,50.6,35.4,29.98,North,0,0.0,0.0,56,0.00,,,0.04,WUHU216HW,2013-10-08 00:45:00,
2013-10-07 19:51:00,50.2,34.2,29.98,North,0,0.0,0.0,54,0.00,,,0.04,WUHU216HW,2013-10-08 00:51:00,
2013-10-07 19:56:00,50.0,33.6,29.99,North,0,0.0,0.0,53,0.00,,,0.04,WUHU216HW,2013-10-08 00:56:00,
2013-10-07 20:03:00,49.9,34.3,29.99,North,0,0.0,0.0,55,0.00,,,0.04,WUHU216HW,2013-10-08 01:03:00,
2013-10-07 20:09:00,49.3,32.9,29.99,North,0,0.0,0.0,53,0.00,,,0.04,WUHU216HW,2013-10-08 01:09:00,
2013-10-07 20:15:00,49.0,32.9,30.00,North,0,0.0,0.0,54,0.00,,,0.04,WUHU216HW,2013-10-08 01:15:00,
2013-10-07 20:22:00,48.6,31.2,30.00,North,0,0.0,0.0,51,0.00,,,0.04,WUHU216HW,2013-10-08 01:22:00,
2013-10-07 20:27:00,48.1,28.6,30.00,North,0,0.0,0.0,47,0.00,,,0.04,WUHU216HW,2013-10-08 01:27:00,
2013-10-07 20:32:00,47.7,23.2,30.00,West,270,0.4,0.7,38,0.00,,,0.04,WUHU216HW,2013-10-08 01:32:00,
2013-10-07 20:37:00,47.7,23.9,30.00,North,0,0.0,0.0,39,0.00,,,0.04,WUHU216HW,2013-10-08 01:37:00,
2013-10-07 20:42:00,47.5,23.0,30.00,North,0,0.0,0.0,38,0.00,,,0.04,WUHU216HW,2013-10-08 01:42:00,
2013-10-07 20:47:00,47.7,26.2,30.01,North,0,0.0,0.0,43,0.00,,,0.04,WUHU216HW,2013-10-08 01:47:00,
2013-10-07 20:53:00,47.3,25.3,30.01,North,0,0.0,0.0,42,0.00,,,0.04,WUHU216HW,2013-10-08 01:53:00,
2013-10-07 20:59:00,47.2,25.7,30.01,West,270,0.4,0.4,43,0.00,,,0.04,WUHU216HW,2013-10-08 01:59:00,
2013-10-07 21:04:00,46.4,18.1,30.02,West,270,0.7,0.7,32,0.00,,,0.04,WUHU216HW,2013-10-08 02:04:00,
2013-10-07 21:09:00,46.4,15.9,30.02,West,270,0.8,1.1,29,0.00,,,0.04,WUHU216HW,2013-10-08 02:09:00,
2013-10-07 21:15:00,46.4,18.1,30.02,West,270,0.4,0.4,32,0.00,,,0.04,WUHU216HW,2013-10-08 02:15:00,
2013-10-07 21:20:00,46.3,14.8,30.02,North,0,0.0,0.0,28,0.00,,,0.04,WUHU216HW,2013-10-08 02:20:00,
2013-10-07 21:26:00,45.9,7.1,30.03,North,0,0.0,0.0,20,0.00,,,0.04,WUHU216HW,2013-10-08 02:26:00,
2013-10-07 21:32:00,46.1,17.1,30.03,North,0,0.0,0.0,31,0.00,,,0.04,WUHU216HW,2013-10-08 02:32:00,
2013-10-07 21:38:00,45.7,18.1,30.03,North,0,0.0,0.0,33,0.00,,,0.04,WUHU216HW,2013-10-08 02:38:00,
2013-10-07 21:44:00,45.2,11.1,30.03,North,0,0.0,0.0,25,0.00,,,0.04,WUHU216HW,2013-10-08 02:44:00,
2013-10-07 21:49:00,45.0,14.6,30.03,North,0,0.0,0.0,29,0.00,,,0.04,WUHU216HW,2013-10-08 02:49:00,
2013-10-07 21:54:00,45.0,16.7,30.03,West,270,0.3,0.4,32,0.00,,,0.04,WUHU216HW,2013-10-08 02:54:00,
2013-10-07 22:00:00,44.8,0.0,30.04,West,270,0.6,0.7,0,0.00,,,0.04,WUHU216HW,2013-10-08 03:00:00,
2013-10-07 22:05:00,44.6,0.0,30.04,West,270,0.2,0.2,0,0.00,,,0.04,WUHU216HW,2013-10-08 03:05:00,
2013-10-07 22:10:00,44.3,0.0,30.04,North,0,0.0,0.0,0,0.00,,,0.04,WUHU216HW,2013-10-08 03:10:00,
2013-10-07 22:15:00,43.9,0.0,30.04,North,0,0.0,0.0,0,0.00,,,0.04,WUHU216HW,2013-10-08 03:15:00,
2013-10-07 22:20:00,44.1,0.0,30.04,West,270,0.6,0.7,0,0.00,,,0.04,WUHU216HW,2013-10-08 03:20:00,
2013-10-07 22:25:00,43.7,0.0,30.04,West,270,0.6,0.9,0,0.00,,,0.04,WUHU216HW,2013-10-08 03:25:00,
2013-10-07 22:31:00,43.9,0.0,30.04,West,270,0.3,0.4,0,0.00,,,0.04,WUHU216HW,2013-10-08 03:31:00,
2013-10-07 22:38:00,43.7,0.0,30.04,North,0,0.0,0.0,0,0.00,,,0.04,WUHU216HW,2013-10-08 03:38:00,
2013-10-07 22:45:00,43.6,0.0,30.05,ENE,57,1.5,2.0,0,0.00,,,0.04,WUHU216HW,2013-10-08 03:45:00,
2013-10-07 22:50:00,43.6,0.0,30.05,ENE,68,0.3,0.4,0,0.00,,,0.04,WUHU216HW,2013-10-08 03:50:00,
2013-10-07 22:55:00,43.4,0.0,30.04,ENE,68,0.4,0.4,0,0.00,,,0.04,WUHU216HW,2013-10-08 03:55:00,
2013-10-07 23:00:00,43.4,0.0,30.05,ENE,68,0.4,0.4,0,0.00,,,0.04,WUHU216HW,2013-10-08 04:00:00,
2013-10-07 23:06:00,43.0,0.0,30.05,ENE,68,1.0,1.1,0,0.00,,,0.04,WUHU216HW,2013-10-08 04:06:00,
2013-10-07 23:11:00,43.0,0.0,30.05,ENE,68,1.0,1.3,0,0.00,,,0.04,WUHU216HW,2013-10-08 04:11:00,
2013-10-07 23:16:00,43.0,0.0,30.05,North,0,0.0,0.0,0,0.00,,,0.04,WUHU216HW,2013-10-08 04:16:00,
2013-10-07 23:23:00,42.8,0.0,30.05,ENE,68,0.9,1.1,0,0.00,,,0.04,WUHU216HW,2013-10-08 04:23:00,
2013-10-07 23:30:00,42.8,0.0,30.05,ENE,68,0.6,0.9,0,0.00,,,0.04,WUHU216HW,2013-10-08 04:30:00,
2013-10-07 23:36:00,42.8,0.0,30.06,ENE,68,0.7,0.9,0,0.00,,,0.04,WUHU216HW,2013-10-08 04:36:00,
2013-10-07 23:41:00,42.7,0.0,30.05,ENE,68,0.4,0.4,0,0.00,,,0.04,WUHU216HW,2013-10-08 04:41:00,
2013-10-07 23:46:00,42.5,0.0,30.05,ENE,68,0.4,0.4,0,0.00,,,0.04,WUHU216HW,2013-10-08 04:46:00,
2013-10-07 23:51:00,42.3,0.0,30.06,North,0,0.0,0.0,0,0.00,,,0.04,WUHU216HW,2013-10-08 04:51:00,
2013-10-07 23:56:00,42.1,0.0,30.06,North,0,0.0,0.0,0,0.00,,,0.04,WUHU216HW,2013-10-08 04:56:00,